Time;durP1;ratioP1;P1;durP2;ratioP2;P2;SDS_P1;SDS_P2;PMS_P1;PMS_P2;Temp;Humidity;BMP_temperature;BMP_pressure;BME280_temperature;BME280_humidity;BME280_pressure;Samples;Min_cycle;Max_cycle;Signal;HPM_P1;HPM_P2
2023/07/20 00:01:00;;;;;;;1.00;0.32;;;;;;;20.41;63.38;101195.59;7362178;19;20010;-63
2023/07/20 00:03:27;;;;;;;1.02;0.40;;;;;;;20.41;63.27;101184.91;7359885;19;20846;-60
2023/07/20 00:06:01;;;;;;;1.35;0.30;;;;;;;20.35;63.40;101191.06;7358843;19;20625;-62
2023/07/20 00:08:28;;;;;;;0.68;0.30;;;;;;;20.31;64.22;101189.84;7355309;19;20031;-61
2023/07/20 00:10:56;;;;;;;1.25;0.30;;;;;;;20.29;64.51;101197.22;7357734;19;20082;-61
2023/07/20 00:13:31;;;;;;;1.10;0.40;;;;;;;20.25;64.85;101193.31;7361771;19;21758;-62
2023/07/20 00:15:58;;;;;;;1.73;0.60;;;;;;;20.26;64.91;101185.09;7362963;19;20767;-61
2023/07/20 00:18:25;;;;;;;1.63;0.50;;;;;;;20.23;65.42;101182.00;7361071;19;20014;-61
2023/07/20 00:20:52;;;;;;;1.27;0.50;;;;;;;20.20;65.99;101190.44;7361265;19;20022;-61
2023/07/20 00:23:22;;;;;;;1.17;0.50;;;;;;;20.18;66.20;101185.28;7357453;19;20030;-63
2023/07/20 00:25:49;;;;;;;1.65;0.85;;;;;;;20.15;66.15;101193.75;7359583;19;20094;-62
2023/07/20 00:28:16;;;;;;;2.72;0.68;;;;;;;20.16;66.08;101190.03;7357044;19;20018;-62
2023/07/20 00:30:43;;;;;;;1.52;0.60;;;;;;;20.16;66.33;101191.88;7359583;19;20052;-61
2023/07/20 00:33:11;;;;;;;1.75;0.70;;;;;;;20.14;66.64;101185.91;7357342;19;20747;-61
2023/07/20 00:35:39;;;;;;;1.25;0.55;;;;;;;20.11;66.99;101183.66;7360722;19;20045;-61
2023/07/20 00:38:06;;;;;;;2.47;0.57;;;;;;;20.14;66.95;101186.75;7355725;19;20045;-60
2023/07/20 00:40:37;;;;;;;1.52;0.57;;;;;;;20.13;67.09;101190.44;7361041;19;20094;-60
2023/07/20 00:43:05;;;;;;;1.27;0.40;;;;;;;20.09;67.55;101189.22;7359345;19;20920;-62
2023/07/20 00:45:33;;;;;;;0.90;0.40;;;;;;;20.04;68.39;101183.66;7360857;19;20010;-61
2023/07/20 00:48:01;;;;;;;2.20;0.68;;;;;;;19.98;68.66;101182.63;7358081;19;20039;-63
2023/07/20 00:50:29;;;;;;;1.60;0.40;;;;;;;19.97;68.83;101188.16;7364799;19;20010;-61
2023/07/20 00:52:56;;;;;;;1.50;0.50;;;;;;;19.93;68.94;101185.09;7357019;19;20027;-61
2023/07/20 00:55:25;;;;;;;1.08;0.40;;;;;;;19.91;69.50;101186.34;7360128;19;20215;-61
2023/07/20 00:57:52;;;;;;;1.10;0.45;;;;;;;19.89;69.81;101186.53;7355502;19;20089;-63
2023/07/20 01:00:19;;;;;;;0.88;0.40;;;;;;;19.89;69.90;101183.03;7361525;19;20039;-61
2023/07/20 01:02:46;;;;;;;1.08;0.50;;;;;;;19.87;70.38;101182.41;7358580;19;20018;-61
2023/07/20 01:05:17;;;;;;;3.53;0.70;;;;;;;19.80;70.95;101186.94;7358987;19;20010;-62
2023/07/20 01:08:17;;;;;;;1.73;0.73;;;;;;;19.79;71.25;101182.63;7353822;19;20019;-62
2023/07/20 01:10:57;;;;;;;3.58;0.88;;;;;;;19.73;71.31;101180.75;7356393;19;20015;-62
2023/07/20 01:13:31;;;;;;;3.83;1.00;;;;;;;19.71;71.44;101180.97;7357051;19;20026;-61
2023/07/20 01:16:01;;;;;;;2.78;0.80;;;;;;;19.67;71.76;101176.22;7362853;19;20022;-61
2023/07/20 01:18:28;;;;;;;2.15;0.65;;;;;;;19.62;72.07;101182.19;7367037;19;20434;-61
2023/07/20 01:21:03;;;;;;;2.97;0.80;;;;;;;19.62;72.41;101185.69;7364495;19;20014;-62
2023/07/20 01:23:46;;;;;;;1.98;0.52;;;;;;;19.56;72.45;101170.47;7365897;19;20025;-62
2023/07/20 01:26:27;;;;;;;1.20;0.60;;;;;;;19.54;72.17;101182.38;7368168;19;20358;-61
2023/07/20 01:29:28;;;;;;;3.22;0.63;;;;;;;19.57;71.89;101181.97;7367287;19;20017;-61
2023/07/20 01:31:57;;;;;;;1.52;0.40;;;;;;;19.54;71.90;101177.06;7365134;19;20010;-61
2023/07/20 01:34:25;;;;;;;1.77;0.57;;;;;;;19.52;71.62;101176.41;7361958;19;20010;-62
2023/07/20 01:36:54;;;;;;;1.88;0.50;;;;;;;19.47;71.68;101176.19;7367080;19;20023;-60
2023/07/20 01:39:22;;;;;;;3.35;0.55;;;;;;;19.44;71.92;101182.78;7361367;19;20048;-61
2023/07/20 01:41:49;;;;;;;2.63;0.45;;;;;;;19.44;71.84;101176.59;7367415;19;20014;-62
2023/07/20 01:44:16;;;;;;;2.10;0.50;;;;;;;19.43;72.13;101174.94;7364496;19;20467;-61
2023/07/20 01:46:43;;;;;;;1.40;0.43;;;;;;;19.41;71.74;101179.63;7365723;19;20029;-60
2023/07/20 01:49:10;;;;;;;2.42;0.50;;;;;;;19.40;71.71;101183.38;7365443;19;20054;-60
2023/07/20 01:51:37;;;;;;;1.63;0.57;;;;;;;19.39;72.10;101179.88;7370055;19;20018;-61
2023/07/20 01:54:04;;;;;;;2.72;0.43;;;;;;;19.37;71.97;101176.56;7360108;19;20027;-61
2023/07/20 01:56:31;;;;;;;3.75;0.50;;;;;;;19.35;72.37;101175.94;7366268;19;20021;-62
2023/07/20 01:58:58;;;;;;;2.25;0.43;;;;;;;19.35;72.59;101173.25;7362895;19;20014;-61
2023/07/20 02:01:28;;;;;;;2.88;0.57;;;;;;;19.36;71.80;101182.09;7363831;19;20086;-61
2023/07/20 02:03:55;;;;;;;2.25;1.08;;;;;;;19.33;71.78;101178.00;7363606;19;20014;-61
2023/07/20 02:06:22;;;;;;;2.00;0.40;;;;;;;19.31;71.54;101171.19;7363891;19;20041;-60
2023/07/20 02:08:50;;;;;;;1.42;0.50;;;;;;;19.25;71.58;101172.03;7361891;19;20025;-61
2023/07/20 02:11:17;;;;;;;0.70;0.30;;;;;;;19.22;71.01;101171.41;7360977;19;20014;-61
2023/07/20 02:13:44;;;;;;;0.80;0.50;;;;;;;19.20;71.45;101177.94;7365683;19;20011;-60
2023/07/20 02:16:11;;;;;;;1.75;0.40;;;;;;;19.17;70.55;101171.19;7363917;19;20419;-60
2023/07/20 02:18:38;;;;;;;1.27;0.50;;;;;;;19.17;70.09;101173.84;7364743;19;20010;-62
2023/07/20 02:21:06;;;;;;;1.05;0.40;;;;;;;19.14;69.71;101165.44;7364685;19;20576;-62
2023/07/20 02:23:33;;;;;;;0.88;0.30;;;;;;;19.13;69.54;101163.78;7362128;19;20014;-60
2023/07/20 02:26:01;;;;;;;0.60;0.30;;;;;;;19.08;69.33;101163.56;7362939;19;20101;-61
2023/07/20 02:28:28;;;;;;;0.60;0.35;;;;;;;19.08;67.88;101160.88;7363544;19;20014;-61
2023/07/20 02:30:55;;;;;;;1.35;0.52;;;;;;;19.08;68.13;101161.72;7365501;19;20081;-63
2023/07/20 02:33:23;;;;;;;2.38;0.30;;;;;;;19.03;68.62;101158.81;7361786;19;20621;-62
2023/07/20 02:35:50;;;;;;;1.48;0.40;;;;;;;19.00;68.40;101161.88;7363696;19;20035;-61
2023/07/20 02:38:17;;;;;;;1.42;0.30;;;;;;;18.99;68.42;101162.09;7360640;19;20010;-61
2023/07/20 02:40:44;;;;;;;5.07;0.38;;;;;;;19.02;67.80;101164.34;7365120;19;20022;-61
2023/07/20 02:43:11;;;;;;;2.45;0.40;;;;;;;19.02;67.58;101167.84;7362324;19;20018;-60
2023/07/20 02:45:44;;;;;;;2.28;0.50;;;;;;;18.96;67.46;101168.63;7363769;19;20014;-62
2023/07/20 02:48:11;;;;;;;1.35;0.40;;;;;;;18.94;68.23;101165.34;7361772;19;20026;-62
2023/07/20 02:50:38;;;;;;;1.48;0.30;;;;;;;18.93;67.84;101163.72;7360872;19;20014;-62
2023/07/20 02:53:05;;;;;;;2.22;0.40;;;;;;;18.89;67.98;101167.78;7362154;19;20521;-62
2023/07/20 02:55:32;;;;;;;4.35;0.45;;;;;;;18.85;67.73;101160.38;7361882;19;20018;-61
2023/07/20 02:57:59;;;;;;;2.13;1.63;;;;;;;18.79;67.59;101176.13;7361361;19;20019;-61
2023/07/20 03:00:26;;;;;;;3.35;0.40;;;;;;;18.76;67.73;101173.88;7361535;19;20348;-61
2023/07/20 03:02:55;;;;;;;2.42;0.40;;;;;;;18.75;67.53;101174.06;7362542;19;20070;-61
2023/07/20 03:05:27;;;;;;;1.52;0.40;;;;;;;18.73;67.72;101170.78;7362566;19;20010;-62
2023/07/20 03:07:56;;;;;;;2.20;0.30;;;;;;;18.72;67.55;101171.81;7359966;19;20010;-61
2023/07/20 03:10:23;;;;;;;0.90;0.40;;;;;;;18.72;67.82;101172.63;7358270;19;20025;-61
2023/07/20 03:12:50;;;;;;;1.42;0.50;;;;;;;18.72;68.18;101167.31;7361252;19;20358;-61
2023/07/20 03:15:17;;;;;;;1.65;0.30;;;;;;;18.73;67.85;101162.78;7361158;19;20739;-61
2023/07/20 03:17:44;;;;;;;2.97;0.30;;;;;;;18.74;67.41;101170.56;7362395;19;20046;-61
2023/07/20 03:20:12;;;;;;;2.63;0.40;;;;;;;18.75;66.91;101172.22;7360122;19;20018;-62
2023/07/20 03:22:39;;;;;;;3.58;0.40;;;;;;;18.71;66.61;101172.81;7362973;19;20493;-61
2023/07/20 03:25:07;;;;;;;1.67;0.47;;;;;;;18.71;66.85;101170.16;7360071;19;20148;-62
2023/07/20 03:27:34;;;;;;;0.80;0.32;;;;;;;18.69;66.80;101169.56;7361294;19;20113;-63
2023/07/20 03:30:02;;;;;;;1.10;0.30;;;;;;;18.65;66.72;101177.09;7362439;19;20458;-61
2023/07/20 03:32:29;;;;;;;4.80;0.40;;;;;;;18.64;66.55;101166.66;7363078;19;20098;-60
2023/07/20 03:34:56;;;;;;;3.58;0.60;;;;;;;18.60;66.83;101170.69;7359549;19;20017;-61
2023/07/20 03:37:23;;;;;;;2.60;0.70;;;;;;;18.56;66.64;101174.78;7357266;19;20093;-60
2023/07/20 03:39:50;;;;;;;1.77;0.45;;;;;;;18.54;66.71;101168.84;7358407;19;20006;-63
2023/07/20 03:42:18;;;;;;;1.50;0.40;;;;;;;18.52;66.83;101174.34;7360929;19;20085;-62
2023/07/20 03:44:44;;;;;;;0.70;0.30;;;;;;;18.49;66.82;101171.25;7360931;19;20006;-61
2023/07/20 03:47:12;;;;;;;0.77;0.40;;;;;;;18.45;67.11;101168.13;7362302;19;20036;-61
2023/07/20 03:49:39;;;;;;;2.15;0.40;;;;;;;18.48;67.40;101164.25;7356941;19;20033;-63
2023/07/20 03:52:06;;;;;;;2.78;0.35;;;;;;;18.50;67.23;101164.88;7358795;19;20015;-61
2023/07/20 03:54:33;;;;;;;1.30;0.40;;;;;;;18.48;66.40;101172.25;7359394;19;20090;-62
2023/07/20 03:57:00;;;;;;;1.35;0.50;;;;;;;18.48;66.57;101170.41;7359265;19;20018;-61
2023/07/20 03:59:27;;;;;;;1.30;0.40;;;;;;;18.45;66.13;101169.97;7357020;19;20057;-61
2023/07/20 04:01:55;;;;;;;0.93;0.30;;;;;;;18.44;66.42;101173.69;7362567;19;20097;-61
2023/07/20 04:04:22;;;;;;;1.38;0.50;;;;;;;18.37;66.69;101169.13;7361760;19;20015;-63
2023/07/20 04:06:49;;;;;;;1.60;0.40;;;;;;;18.34;66.94;101168.66;7360937;19;20014;-62
2023/07/20 04:09:16;;;;;;;9.90;2.45;;;;;;;18.32;66.99;101163.56;7357074;19;20090;-61
2023/07/20 04:11:43;;;;;;;3.92;0.40;;;;;;;18.30;67.17;101167.41;7358901;19;20010;-61
2023/07/20 04:14:10;;;;;;;1.52;0.50;;;;;;;18.26;66.88;101168.84;7357807;19;20101;-62
2023/07/20 04:16:37;;;;;;;6.93;0.55;;;;;;;18.18;67.21;101163.66;7361909;19;20029;-61
2023/07/20 04:19:04;;;;;;;2.35;0.40;;;;;;;18.20;66.94;101162.44;7359335;19;20014;-61
2023/07/20 04:21:31;;;;;;;3.25;0.55;;;;;;;18.14;67.21;101168.53;7361332;19;20656;-60
2023/07/20 04:23:58;;;;;;;1.10;0.38;;;;;;;18.11;67.64;101166.28;7356264;19;20093;-62
2023/07/20 04:26:25;;;;;;;3.50;0.50;;;;;;;18.10;67.44;101156.63;7360074;19;20006;-63
2023/07/20 04:28:52;;;;;;;1.65;0.30;;;;;;;18.07;67.51;101172.19;7358468;19;20011;-62
2023/07/20 04:31:19;;;;;;;5.90;2.80;;;;;;;18.02;67.48;101164.78;7358748;19;20019;-63
2023/07/20 04:33:47;;;;;;;2.83;0.50;;;;;;;18.05;69.15;101175.03;7357024;19;20006;-62
2023/07/20 04:36:16;;;;;;;1.70;0.43;;;;;;;18.08;68.95;101163.19;7360848;19;20013;-62
2023/07/20 04:38:43;;;;;;;1.55;0.30;;;;;;;18.05;68.25;101167.03;7354263;19;20082;-61
2023/07/20 04:41:12;;;;;;;1.58;0.38;;;;;;;18.03;67.92;101170.94;7359654;19;20089;-62
2023/07/20 04:43:45;;;;;;;1.20;0.47;;;;;;;18.02;67.68;101166.59;7357678;19;20023;-61
2023/07/20 04:46:12;;;;;;;2.53;0.40;;;;;;;17.99;67.75;101165.13;7361558;19;20003;-62
2023/07/20 04:48:40;;;;;;;2.08;0.50;;;;;;;17.95;67.84;101166.53;7353457;19;20014;-62
2023/07/20 04:51:07;;;;;;;1.98;0.50;;;;;;;17.90;68.09;101167.13;7361376;19;20115;-62
2023/07/20 04:53:34;;;;;;;5.03;0.60;;;;;;;17.86;68.37;101160.53;7358977;19;20014;-62
2023/07/20 04:56:01;;;;;;;0.90;0.40;;;;;;;17.85;68.39;101168.72;7362484;19;20018;-63
2023/07/20 04:58:28;;;;;;;1.17;0.40;;;;;;;17.82;68.55;101163.78;7361184;19;20114;-62
2023/07/20 05:00:55;;;;;;;2.67;0.50;;;;;;;17.80;68.37;101171.94;7359206;19;20502;-60
2023/07/20 05:03:22;;;;;;;2.95;0.63;;;;;;;17.76;68.41;101167.22;7359846;19;20381;-62
2023/07/20 05:05:49;;;;;;;2.72;0.50;;;;;;;17.74;68.47;101169.22;7362467;19;20371;-61
2023/07/20 05:08:17;;;;;;;1.20;0.47;;;;;;;17.71;68.38;101175.78;7354788;19;20021;-62
2023/07/20 05:10:44;;;;;;;1.98;0.47;;;;;;;17.72;68.53;101173.94;7357488;19;20082;-62
2023/07/20 05:13:11;;;;;;;0.90;0.40;;;;;;;17.71;68.44;101173.09;7355353;19;20019;-62
2023/07/20 05:15:38;;;;;;;2.22;0.82;;;;;;;17.70;68.64;101174.13;7357998;19;20044;-62
2023/07/20 05:18:05;;;;;;;3.03;0.50;;;;;;;17.67;68.38;101173.69;7355604;19;20114;-61
2023/07/20 05:20:33;;;;;;;2.70;0.50;;;;;;;17.64;68.44;101172.22;7357684;19;20133;-61
2023/07/20 05:23:01;;;;;;;2.28;0.68;;;;;;;17.62;68.57;101168.94;7356726;19;20030;-61
2023/07/20 05:25:28;;;;;;;4.00;0.70;;;;;;;17.61;68.67;101174.44;7359543;19;20042;-60
2023/07/20 05:27:57;;;;;;;2.00;0.50;;;;;;;17.56;68.90;101174.16;7357494;19;20614;-60
2023/07/20 05:30:24;;;;;;;2.05;0.52;;;;;;;17.58;69.38;101172.94;7357289;19;20018;-60
2023/07/20 05:32:52;;;;;;;3.30;0.50;;;;;;;17.58;69.09;101174.78;7359231;19;20371;-62
2023/07/20 05:35:20;;;;;;;2.47;0.63;;;;;;;17.57;69.10;101165.16;7358883;19;20022;-62
2023/07/20 05:37:47;;;;;;;2.20;0.70;;;;;;;17.61;69.55;101167.28;7355922;19;20023;-62
2023/07/20 05:40:18;;;;;;;2.47;0.60;;;;;;;17.68;69.52;101170.81;7356329;19;21636;-61
2023/07/20 05:42:47;;;;;;;2.60;0.98;;;;;;;17.76;69.09;101173.34;7359565;19;20347;-62
2023/07/20 05:45:15;;;;;;;3.47;0.60;;;;;;;17.79;68.90;101172.13;7356604;19;20058;-61
2023/07/20 05:47:42;;;;;;;3.08;0.60;;;;;;;17.80;69.26;101177.28;7357414;19;20581;-62
2023/07/20 05:50:10;;;;;;;2.03;0.60;;;;;;;17.82;68.78;101177.09;7356419;19;20011;-62
2023/07/20 05:52:38;;;;;;;1.77;0.60;;;;;;;17.82;68.67;101174.44;7356942;19;20048;-61
2023/07/20 05:55:06;;;;;;;2.63;0.52;;;;;;;17.78;68.84;101175.81;7355773;19;20061;-62
2023/07/20 05:57:35;;;;;;;3.33;0.60;;;;;;;17.77;68.65;101176.84;7358113;19;20022;-61
2023/07/20 06:00:03;;;;;;;33.47;3.75;;;;;;;17.76;69.12;101176.03;7355854;19;20026;-62
2023/07/20 06:02:32;;;;;;;2.42;1.05;;;;;;;17.75;69.09;101178.88;7361886;19;20025;-61
2023/07/20 06:05:00;;;;;;;4.43;0.98;;;;;;;17.79;68.92;101175.63;7363321;19;20030;-62
2023/07/20 06:07:31;;;;;;;4.10;0.75;;;;;;;17.78;68.52;101173.97;7360502;19;20198;-62
2023/07/20 06:09:59;;;;;;;3.13;0.60;;;;;;;17.73;69.18;101175.56;7359980;19;20019;-62
2023/07/20 06:12:26;;;;;;;2.60;0.80;;;;;;;17.74;70.89;101179.88;7365177;19;20046;-61
2023/07/20 06:14:53;;;;;;;3.83;0.70;;;;;;;17.73;70.36;101173.72;7359999;19;20122;-62
2023/07/20 06:17:28;;;;;;;2.03;0.55;;;;;;;17.78;70.52;101181.97;7362950;19;20014;-62
2023/07/20 06:19:55;;;;;;;4.05;0.90;;;;;;;17.82;70.23;101177.94;7363690;19;20022;-61
2023/07/20 06:22:22;;;;;;;3.90;0.65;;;;;;;17.87;69.59;101172.84;7360522;19;20105;-64
2023/07/20 06:24:49;;;;;;;2.75;0.70;;;;;;;18.03;69.54;101176.25;7363871;19;20014;-62
2023/07/20 06:27:16;;;;;;;3.72;0.65;;;;;;;18.22;69.79;101180.91;7364112;19;20086;-62
2023/07/20 06:29:43;;;;;;;3.20;0.57;;;;;;;18.45;68.49;101180.63;7361522;19;20006;-62
2023/07/20 06:32:10;;;;;;;1.98;0.60;;;;;;;18.67;67.31;101182.25;7363667;19;20045;-61
2023/07/20 06:34:38;;;;;;;2.10;0.70;;;;;;;18.83;66.87;101184.59;7365195;19;20011;-62
2023/07/20 06:37:06;;;;;;;2.72;0.57;;;;;;;18.91;66.37;101184.41;7360996;19;20010;-62
2023/07/20 06:39:33;;;;;;;3.53;0.60;;;;;;;18.94;65.39;101191.19;7358609;19;20015;-61
2023/07/20 06:42:03;;;;;;;1.10;0.50;;;;;;;19.03;64.96;101182.81;7360832;19;20018;-66
2023/07/20 06:44:30;;;;;;;1.42;0.60;;;;;;;19.11;65.23;101185.31;7362958;19;20030;-62
2023/07/20 06:46:57;;;;;;;1.75;0.60;;;;;;;19.10;65.57;101189.00;7364615;19;20572;-63
2023/07/20 06:49:25;;;;;;;4.57;0.60;;;;;;;19.07;65.23;101188.59;7359289;19;20022;-61
2023/07/20 06:51:53;;;;;;;3.03;0.60;;;;;;;19.04;65.03;101192.47;7362409;19;20021;-61
2023/07/20 06:54:20;;;;;;;2.40;0.80;;;;;;;19.05;64.58;101191.44;7361429;19;20995;-63
2023/07/20 06:56:49;;;;;;;2.58;0.60;;;;;;;18.96;64.34;101191.81;7364930;19;20513;-63
2023/07/20 06:59:36;;;;;;;3.35;0.65;;;;;;;18.91;65.31;101192.41;7362751;19;20007;-62
2023/07/20 07:02:08;;;;;;;3.47;0.70;;;;;;;18.90;65.49;101193.41;7361061;19;20122;-63
2023/07/20 07:04:41;;;;;;;2.53;0.60;;;;;;;18.82;65.73;101187.44;7362038;19;20015;-63
2023/07/20 07:07:09;;;;;;;2.47;0.90;;;;;;;18.79;65.56;101184.13;7362671;19;20014;-62
2023/07/20 07:09:36;;;;;;;2.42;0.60;;;;;;;18.78;65.83;101197.69;7357464;19;20040;-64
2023/07/20 07:12:04;;;;;;;2.78;0.68;;;;;;;18.80;65.88;101187.63;7362556;19;21037;-60
2023/07/20 07:14:31;;;;;;;4.13;0.60;;;;;;;18.82;65.78;101198.09;7359242;19;20022;-63
2023/07/20 07:16:59;;;;;;;3.75;0.70;;;;;;;18.80;65.91;101190.28;7358550;19;20018;-62
2023/07/20 07:19:30;;;;;;;1.73;0.50;;;;;;;18.81;65.76;101189.28;7361007;19;20013;-62
2023/07/20 07:21:58;;;;;;;2.00;0.70;;;;;;;18.83;65.67;101187.25;7363868;19;20014;-62
2023/07/20 07:24:27;;;;;;;3.08;0.70;;;;;;;18.86;65.57;101191.34;7359023;19;20494;-62
2023/07/20 07:26:55;;;;;;;1.38;0.60;;;;;;;18.86;66.00;101188.69;7361353;19;20018;-61
2023/07/20 07:29:22;;;;;;;3.50;0.60;;;;;;;18.89;66.09;101183.81;7359087;19;21037;-61
2023/07/20 07:31:49;;;;;;;2.83;0.55;;;;;;;18.97;66.67;101180.94;7360679;19;20048;-63
2023/07/20 07:34:16;;;;;;;3.90;0.65;;;;;;;19.05;65.32;101183.44;7360889;19;20023;-64
2023/07/20 07:36:44;;;;;;;1.38;0.57;;;;;;;19.09;65.44;101178.53;7364216;19;20013;-62
2023/07/20 07:39:11;;;;;;;2.72;0.47;;;;;;;19.15;66.64;101177.72;7354481;19;20023;-62
2023/07/20 07:41:45;;;;;;;1.10;0.50;;;;;;;19.23;64.74;101177.56;7361980;19;20019;-62
2023/07/20 07:44:18;;;;;;;1.70;0.60;;;;;;;19.31;64.86;101181.88;7354179;19;20344;-62
2023/07/20 07:46:45;;;;;;;3.13;0.60;;;;;;;19.34;65.29;101178.81;7363427;19;20052;-63
2023/07/20 07:49:12;;;;;;;3.92;0.52;;;;;;;19.45;63.92;101175.59;7361191;19;20074;-60
2023/07/20 07:51:40;;;;;;;3.40;0.50;;;;;;;19.52;64.06;101176.41;7360472;19;20090;-62
2023/07/20 07:54:07;;;;;;;3.97;0.63;;;;;;;19.63;64.54;101167.81;7359376;19;20052;-61
2023/07/20 07:56:34;;;;;;;6.05;0.70;;;;;;;19.76;63.46;101167.03;7363246;19;20038;-63
2023/07/20 07:59:02;;;;;;;2.58;0.70;;;;;;;19.91;66.51;101171.09;7360090;19;20021;-60
2023/07/20 08:01:30;;;;;;;3.00;0.60;;;;;;;19.96;62.88;101167.84;7360415;19;20014;-60
2023/07/20 08:03:57;;;;;;;6.43;0.60;;;;;;;19.96;62.67;101170.53;7358133;19;20014;-62
2023/07/20 08:06:24;;;;;;;2.70;0.60;;;;;;;19.97;63.11;101174.81;7362657;19;20601;-62
2023/07/20 08:08:52;;;;;;;6.47;0.60;;;;;;;19.99;62.39;101180.78;7356583;19;20110;-59
2023/07/20 08:11:19;;;;;;;1.65;0.50;;;;;;;20.00;61.69;101169.91;7367730;19;20026;-60
2023/07/20 08:13:46;;;;;;;2.60;0.60;;;;;;;20.01;64.48;101170.72;7362910;19;20013;-62
2023/07/20 08:16:13;;;;;;;3.60;0.50;;;;;;;20.01;63.96;101168.84;7354435;19;20078;-64
2023/07/20 08:18:41;;;;;;;2.50;0.70;;;;;;;20.08;63.87;101167.00;7361210;19;20029;-62
2023/07/20 08:21:08;;;;;;;9.45;1.38;;;;;;;20.22;62.55;101169.66;7362233;19;20018;-63
2023/07/20 08:23:35;;;;;;;23.45;4.40;;;;;;;20.37;62.86;101178.31;7355912;19;20026;-61
2023/07/20 08:26:02;;;;;;;57.97;12.52;;;;;;;20.44;63.49;101165.75;7358036;19;20011;-62
2023/07/20 08:28:29;;;;;;;46.83;11.50;;;;;;;20.42;65.17;101170.47;7356819;19;20078;-61
2023/07/20 08:30:56;;;;;;;242.05;46.60;;;;;;;20.44;67.53;101163.09;7361766;19;20085;-60
2023/07/20 08:33:24;;;;;;;154.05;36.97;;;;;;;20.35;70.71;101148.31;7358277;19;20506;-62
2023/07/20 08:35:51;;;;;;;258.27;43.42;;;;;;;19.36;89.60;101160.75;7361236;19;20018;-63
2023/07/20 08:38:18;;;;;;;484.45;111.40;;;;;;;18.62;96.77;101158.00;7358321;19;20015;-63
2023/07/20 08:40:46;;;;;;;1351.53;237.68;;;;;;;18.28;100.00;101158.81;7357784;19;20094;-63
2023/07/20 08:43:18;;;;;;;55.80;26.17;;;;;;;17.99;100.00;101154.50;7357817;19;20015;-63
2023/07/20 08:45:47;;;;;;;3.60;3.25;;;;;;;17.43;100.00;101154.38;7360535;19;20015;-62
2023/07/20 08:48:15;;;;;;;274.08;51.53;;;;;;;17.36;100.00;101158.00;7356678;19;20821;-62
2023/07/20 08:50:43;;;;;;;113.90;22.58;;;;;;;17.26;100.00;101152.16;7358387;19;20074;-62
2023/07/20 08:53:12;;;;;;;21.30;7.82;;;;;;;17.14;100.00;101154.47;7354951;19;20054;-63
2023/07/20 08:55:45;;;;;;;23.15;4.63;;;;;;;17.10;100.00;101150.53;7359270;19;20031;-63
2023/07/20 08:58:14;;;;;;;12.25;2.20;;;;;;;16.80;100.00;101157.75;7360226;19;20794;-64
2023/07/20 09:00:42;;;;;;;6.72;1.10;;;;;;;16.74;100.00;101152.34;7362127;19;20018;-64
2023/07/20 09:03:14;;;;;;;17.45;2.63;;;;;;;16.68;100.00;101143.28;7356288;19;20068;-63
2023/07/20 09:05:41;;;;;;;5.47;1.10;;;;;;;16.65;100.00;101147.13;7356308;19;20014;-63
2023/07/20 09:08:08;;;;;;;4.75;1.20;;;;;;;16.66;100.00;101156.72;7357571;19;20886;-62
2023/07/20 09:10:35;;;;;;;4.97;1.25;;;;;;;16.59;100.00;101155.00;7361658;19;20018;-62
2023/07/20 09:13:02;;;;;;;3.25;1.08;;;;;;;16.56;100.00;101147.34;7361165;19;20035;-63
2023/07/20 09:15:30;;;;;;;2.63;1.02;;;;;;;16.53;95.81;101153.88;7358240;19;20021;-62
2023/07/20 09:18:01;;;;;;;2.97;1.17;;;;;;;16.80;92.60;101146.28;7353494;19;20058;-59
2023/07/20 09:20:33;;;;;;;3.60;1.30;;;;;;;16.96;97.12;101149.56;7358525;19;20584;-62
2023/07/20 09:23:04;;;;;;;4.10;1.45;;;;;;;16.99;98.62;101151.84;7355005;19;20023;-61
2023/07/20 09:25:31;;;;;;;4.22;1.40;;;;;;;17.01;93.27;101154.31;7357343;19;20026;-62
2023/07/20 09:28:02;;;;;;;3.08;0.90;;;;;;;17.02;89.09;101151.47;7360222;19;20637;-62
2023/07/20 09:30:31;;;;;;;3.85;1.35;;;;;;;17.05;96.79;101151.09;7359377;19;20081;-61
2023/07/20 09:32:58;;;;;;;4.10;1.10;;;;;;;17.06;100.00;101146.63;7359229;19;20015;-60
2023/07/20 09:35:26;;;;;;;4.60;1.33;;;;;;;17.03;90.55;101147.78;7357593;19;20021;-62
2023/07/20 09:38:08;;;;;;;5.65;1.88;;;;;;;17.14;91.99;101141.16;7360112;19;20026;-62
2023/07/20 09:40:39;;;;;;;8.40;1.80;;;;;;;17.23;94.93;101133.88;7362811;19;20003;-63
2023/07/20 09:43:10;;;;;;;2.88;1.30;;;;;;;17.48;82.43;101136.00;7365208;19;20018;-61
2023/07/20 09:45:43;;;;;;;5.35;1.70;;;;;;;17.63;87.66;101130.63;7364034;19;20045;-60
2023/07/20 09:48:13;;;;;;;2.38;1.00;;;;;;;17.93;79.37;101139.28;7364937;19;20018;-61
2023/07/20 09:50:50;;;;;;;2.58;1.08;;;;;;;18.07;85.20;101135.72;7360918;19;20019;-60
2023/07/20 09:53:18;;;;;;;2.90;1.38;;;;;;;18.10;86.00;101132.66;7363639;19;21798;-59
2023/07/20 09:55:47;;;;;;;3.53;1.75;;;;;;;18.29;84.81;101131.13;7365120;19;20498;-60
2023/07/20 09:58:15;;;;;;;2.42;1.33;;;;;;;18.44;81.40;101129.16;7366128;19;20013;-61
2023/07/20 10:00:50;;;;;;;3.08;1.27;;;;;;;18.54;77.32;101132.31;7361740;19;20018;-61
2023/07/20 10:03:29;;;;;;;2.05;0.90;;;;;;;18.66;74.09;101132.59;7366193;19;21794;-65
2023/07/20 10:06:08;;;;;;;1.83;0.90;;;;;;;18.65;79.77;101126.44;7363497;19;20676;-62
2023/07/20 10:08:42;;;;;;;2.85;1.08;;;;;;;18.67;82.16;101124.41;7364634;19;20015;-61
2023/07/20 10:11:15;;;;;;;3.25;0.95;;;;;;;18.74;83.83;101119.13;7367316;19;20498;-60
2023/07/20 10:13:43;;;;;;;5.85;1.00;;;;;;;18.87;84.77;101126.34;7367809;19;20552;-63
2023/07/20 10:16:28;;;;;;;3.28;0.80;;;;;;;18.97;79.45;101130.28;7367830;19;20019;-60
2023/07/20 10:19:06;;;;;;;2.38;0.80;;;;;;;19.01;79.03;101112.84;7358597;19;20565;-63
2023/07/20 10:21:51;;;;;;;1.42;0.60;;;;;;;19.13;77.24;101121.09;7365608;19;20025;-60
2023/07/20 10:24:26;;;;;;;2.45;0.70;;;;;;;19.29;76.94;101111.88;7361336;19;20063;-62
2023/07/20 10:26:55;;;;;;;3.20;0.70;;;;;;;19.42;75.42;101118.06;7368646;19;20010;-61
2023/07/20 10:29:23;;;;;;;2.20;0.60;;;;;;;19.62;65.78;101116.25;7366284;19;20007;-63
2023/07/20 10:31:52;;;;;;;2.70;0.60;;;;;;;19.70;64.71;101106.41;7364672;19;20145;-61
2023/07/20 10:34:22;;;;;;;1.10;0.50;;;;;;;19.69;67.84;101105.59;7364880;19;20018;-62
2023/07/20 10:36:52;;;;;;;2.25;0.30;;;;;;;19.75;65.54;101104.78;7362624;19;20010;-62
2023/07/20 10:39:27;;;;;;;2.15;0.50;;;;;;;19.85;66.28;101104.34;7357314;19;20040;-60
2023/07/20 10:42:08;;;;;;;1.73;0.40;;;;;;;19.95;62.12;101108.25;7361546;19;20692;-62
2023/07/20 10:44:39;;;;;;;1.45;0.40;;;;;;;20.04;60.00;101108.84;7362494;19;20015;-57
2023/07/20 10:47:11;;;;;;;1.35;0.40;;;;;;;20.08;60.00;101110.06;7364562;19;20022;-60
2023/07/20 10:50:02;;;;;;;1.55;0.43;;;;;;;20.17;59.48;101108.81;7357321;19;20520;-61
2023/07/20 10:52:41;;;;;;;1.42;0.43;;;;;;;20.10;59.59;101097.34;7362876;19;20042;-60
2023/07/20 10:55:16;;;;;;;0.88;0.30;;;;;;;20.05;66.04;101099.81;7358607;19;20011;-60
2023/07/20 10:58:12;;;;;;;2.22;0.35;;;;;;;20.06;69.18;101106.81;7367038;19;20380;-62
2023/07/20 11:00:56;;;;;;;5.15;0.50;;;;;;;20.13;69.50;101096.06;7351466;19;20018;-61
2023/07/20 11:03:31;;;;;;;2.50;0.32;;;;;;;20.10;62.04;101097.34;7361401;19;20018;-60
2023/07/20 11:06:24;;;;;;;0.95;0.30;;;;;;;20.22;65.85;101094.81;7359320;19;20021;-61
2023/07/20 11:09:14;;;;;;;0.90;0.40;;;;;;;20.29;64.58;101088.44;7358440;19;21071;-61
2023/07/20 11:12:02;;;;;;;2.20;0.32;;;;;;;20.41;59.72;101085.97;7358779;19;20060;-61
2023/07/20 11:14:34;;;;;;;2.50;0.20;;;;;;;20.54;61.59;101087.78;7360921;19;20021;-60
2023/07/20 11:17:12;;;;;;;1.42;0.40;;;;;;;20.68;58.78;101089.34;7361540;19;20493;-60
2023/07/20 11:19:43;;;;;;;1.00;0.40;;;;;;;20.77;61.04;101090.78;7359102;19;20952;-62
2023/07/20 11:22:16;;;;;;;2.22;0.32;;;;;;;20.95;57.00;101090.06;7356991;19;20021;-60
2023/07/20 11:24:43;;;;;;;2.10;0.30;;;;;;;21.03;57.30;101090.59;7358080;19;20025;-60
2023/07/20 11:27:10;;;;;;;1.15;0.30;;;;;;;21.20;52.65;101089.09;7360027;19;20035;-60
2023/07/20 11:29:37;;;;;;;2.38;0.40;;;;;;;21.23;56.86;101082.50;7357594;19;20873;-62
2023/07/20 11:32:05;;;;;;;2.88;0.38;;;;;;;21.27;58.02;101084.53;7361703;19;20031;-61
2023/07/20 11:34:35;;;;;;;1.48;0.30;;;;;;;21.31;52.04;101079.56;7360556;19;20014;-62